Terminal Aerodrome Forecast
Issued by NWS Albany, NY

Home | Current Version | Previous Version | Text Only | Print | Product List | Glossary On
Versions: 1 2 3 4 5 6 7 8 9 10 11 12 13
000
FTUS41 KALY 201700 RRA
TAFALB
TAF
KALB 201749Z 2018/2118 16012G20KT P6SM BKN040
     FM202000 17013G23KT P6SM SCT040
     FM210000 17010G18KT P6SM BKN040
     FM210400 18010KT P6SM BKN025
     FM210700 18008KT P6SM OVC015
     FM211200 17007KT 4SM BR BKN007 OVC015
     FM211400 18010KT P6SM BKN015 OVC025
     FM211600 18008KT P6SM BKN025 BKN035=

USA.gov is the U.S. government's official web portal to all federal, state and local government web resources and services.